createdAt,value
2023-01-30T00:01:41.026Z,1.70
2023-01-30T00:04:44.566Z,1.71
2023-01-30T00:07:48.156Z,1.71
2023-01-30T00:10:51.530Z,1.73
2023-01-30T00:13:54.615Z,1.74
2023-01-30T00:17:01.880Z,1.74
2023-01-30T00:20:06.203Z,1.73
2023-01-30T00:23:10.022Z,1.72
2023-01-30T00:26:14.091Z,1.72
2023-01-30T00:29:18.569Z,1.65
2023-01-30T00:32:23.797Z,1.66
2023-01-30T00:35:29.256Z,1.68
2023-01-30T00:38:32.946Z,1.69
2023-01-30T00:41:50.075Z,1.69
2023-01-30T00:45:11.166Z,1.70
2023-01-30T00:48:15.608Z,1.63
2023-01-30T00:51:18.678Z,1.59
2023-01-30T00:54:21.659Z,1.54
2023-01-30T00:57:24.816Z,1.52
2023-01-30T01:00:28.038Z,1.51
2023-01-30T01:03:32.587Z,1.50
2023-01-30T01:06:36.865Z,1.47
2023-01-30T01:09:40.385Z,1.47
2023-01-30T01:12:44.642Z,1.48
2023-01-30T01:15:47.834Z,1.48
2023-01-30T01:18:52.919Z,1.51
2023-01-30T01:21:56.047Z,1.50
2023-01-30T01:24:59.753Z,1.51
2023-01-30T01:28:07.570Z,1.49
2023-01-30T01:31:11.872Z,1.48
2023-01-30T01:34:16.532Z,1.46
2023-01-30T01:37:28.955Z,1.47
2023-01-30T01:40:49.372Z,1.45
2023-01-30T01:44:03.563Z,1.48
2023-01-30T01:47:06.706Z,1.49
2023-01-30T01:50:16.985Z,1.49
2023-01-30T01:53:26.131Z,1.53
2023-01-30T01:56:30.431Z,1.53
2023-01-30T01:59:38.073Z,1.54
2023-01-30T02:02:44.126Z,1.55
2023-01-30T02:05:54.501Z,1.55
2023-01-30T02:09:04.977Z,1.53
2023-01-30T02:12:09.906Z,1.49
2023-01-30T02:15:13.922Z,1.48
2023-01-30T02:18:18.938Z,1.44
2023-01-30T02:22:09.500Z,1.39
2023-01-30T02:25:47.644Z,1.38
2023-01-30T02:29:32.183Z,1.35
2023-01-30T02:32:48.159Z,1.38
2023-01-30T02:35:58.640Z,1.39
2023-01-30T02:39:14.730Z,1.40
2023-01-30T02:42:30.755Z,1.39
2023-01-30T02:45:40.187Z,1.39
2023-01-30T02:48:48.800Z,1.42
2023-01-30T02:52:02.794Z,1.41
2023-01-30T02:55:10.959Z,1.35
2023-01-30T02:58:16.124Z,1.29
2023-01-30T03:01:43.408Z,1.22
2023-01-30T03:05:10.075Z,1.13
2023-01-30T03:08:27.253Z,1.12
2023-01-30T03:11:45.778Z,1.13
2023-01-30T03:14:53.809Z,1.13
2023-01-30T03:17:58.219Z,1.14
2023-01-30T03:21:07.889Z,1.19
2023-01-30T03:24:15.235Z,1.18
2023-01-30T03:27:18.796Z,1.19
2023-01-30T03:30:25.934Z,1.22
2023-01-30T03:33:36.947Z,1.23
2023-01-30T03:36:42.109Z,1.25
2023-01-30T03:39:45.505Z,1.28
2023-01-30T03:42:51.431Z,1.31
2023-01-30T03:45:54.633Z,1.33
2023-01-30T03:48:58.105Z,1.38
2023-01-30T03:52:06.460Z,1.40
2023-01-30T03:55:11.470Z,1.41
2023-01-30T03:58:16.696Z,1.40
2023-01-30T04:01:21.385Z,1.40
2023-01-30T04:04:24.454Z,1.44
2023-01-30T04:07:31.237Z,1.46
2023-01-30T04:10:34.462Z,1.50
2023-01-30T04:13:37.696Z,1.53
2023-01-30T04:16:41.604Z,1.56
2023-01-30T04:20:10.040Z,1.60
2023-01-30T04:23:17.201Z,1.62
2023-01-30T04:26:20.332Z,1.64
2023-01-30T04:29:23.463Z,1.69
2023-01-30T04:32:28.658Z,1.76
2023-01-30T04:35:31.657Z,1.77
2023-01-30T04:38:36.785Z,1.80
2023-01-30T04:41:43.933Z,1.85
2023-01-30T04:44:48.878Z,1.91
2023-01-30T04:47:55.395Z,1.96
2023-01-30T04:51:01.538Z,1.99
2023-01-30T04:54:06.537Z,2.02
2023-01-30T04:57:09.660Z,2.06
2023-01-30T05:00:13.974Z,2.05
2023-01-30T05:03:25.625Z,2.08
2023-01-30T05:06:29.513Z,2.06
2023-01-30T05:09:33.774Z,2.05
2023-01-30T05:12:37.140Z,2.06
2023-01-30T05:15:41.216Z,2.00
2023-01-30T05:18:44.637Z,1.98
2023-01-30T05:21:47.681Z,1.95
2023-01-30T05:24:52.254Z,1.89
2023-01-30T05:27:55.380Z,1.84
2023-01-30T05:31:05.110Z,1.82
2023-01-30T05:34:13.153Z,1.83
2023-01-30T05:37:50.830Z,1.82
2023-01-30T05:41:15.945Z,1.83
2023-01-30T05:44:21.772Z,1.83
2023-01-30T05:47:25.023Z,1.80
2023-01-30T05:50:28.429Z,1.81
2023-01-30T05:53:35.237Z,1.81
2023-01-30T05:56:41.905Z,1.81
2023-01-30T05:59:47.396Z,1.78
2023-01-30T06:02:50.593Z,1.74
2023-01-30T06:05:53.673Z,1.73
2023-01-30T06:08:57.536Z,1.71
2023-01-30T06:12:01.909Z,1.76
2023-01-30T06:15:06.702Z,1.75
2023-01-30T06:18:10.232Z,1.80
2023-01-30T06:21:14.635Z,1.84
2023-01-30T06:24:17.703Z,1.88
2023-01-30T06:27:22.145Z,1.91
2023-01-30T06:30:25.335Z,1.95
2023-01-30T06:33:28.664Z,2.01
2023-01-30T06:36:31.703Z,2.06
2023-01-30T06:39:34.828Z,2.11
2023-01-30T06:42:39.681Z,2.19
2023-01-30T06:45:43.043Z,2.21
2023-01-30T06:48:46.018Z,2.31
2023-01-30T06:51:49.049Z,2.34
2023-01-30T06:54:55.054Z,2.40
2023-01-30T06:58:11.666Z,2.48
2023-01-30T07:01:14.973Z,2.53
2023-01-30T07:04:18.017Z,2.58
2023-01-30T07:07:21.130Z,2.65
2023-01-30T07:10:29.194Z,2.76
2023-01-30T07:13:33.658Z,2.83
2023-01-30T07:16:36.709Z,2.92
2023-01-30T07:19:42.486Z,2.99
2023-01-30T07:22:51.482Z,3.03
2023-01-30T07:25:55.436Z,3.06
2023-01-30T07:28:59.792Z,3.17
2023-01-30T07:32:03.169Z,3.25
2023-01-30T07:35:09.573Z,3.31
2023-01-30T07:38:12.601Z,3.39
2023-01-30T07:41:15.797Z,3.44
2023-01-30T07:44:20.226Z,3.51
2023-01-30T07:47:23.467Z,3.58
2023-01-30T07:50:27.463Z,3.65
2023-01-30T07:53:30.568Z,3.74
2023-01-30T07:56:34.110Z,3.80
2023-01-30T07:59:38.808Z,3.87
2023-01-30T08:02:44.479Z,3.89
2023-01-30T08:05:48.174Z,3.99
2023-01-30T08:08:52.260Z,4.03
2023-01-30T08:11:55.516Z,4.09
2023-01-30T08:15:06.184Z,4.14
2023-01-30T08:18:12.661Z,4.15
2023-01-30T08:21:15.820Z,4.23
2023-01-30T08:24:19.019Z,4.27
2023-01-30T08:27:22.356Z,4.29
2023-01-30T08:30:26.986Z,4.31
2023-01-30T08:33:32.399Z,4.36
2023-01-30T08:36:35.503Z,4.37
2023-01-30T08:39:45.822Z,4.39
2023-01-30T08:42:48.875Z,4.43
2023-01-30T08:45:57.828Z,4.41
2023-01-30T08:49:00.868Z,4.44
2023-01-30T08:52:04.185Z,4.46
2023-01-30T08:55:12.204Z,4.48
2023-01-30T08:58:15.439Z,4.51
2023-01-30T09:01:20.054Z,4.60
2023-01-30T09:04:26.485Z,4.65
2023-01-30T09:07:31.487Z,4.70
2023-01-30T09:10:34.587Z,4.73
2023-01-30T09:13:38.856Z,4.76
2023-01-30T09:16:48.297Z,4.78
2023-01-30T09:19:51.575Z,4.76
2023-01-30T09:22:54.703Z,4.73
2023-01-30T09:25:57.809Z,4.75
2023-01-30T09:29:01.237Z,4.77
2023-01-30T09:32:05.990Z,4.80
2023-01-30T09:35:14.427Z,4.81
2023-01-30T09:38:18.542Z,4.85
2023-01-30T09:41:47.754Z,4.89
2023-01-30T09:45:28.904Z,4.92
2023-01-30T09:48:46.558Z,4.92
2023-01-30T09:52:09.908Z,4.99
2023-01-30T09:55:20.096Z,5.05
2023-01-30T09:58:25.306Z,5.08
2023-01-30T10:01:37.919Z,5.14
2023-01-30T10:05:00.614Z,5.20
2023-01-30T10:08:31.254Z,5.22
2023-01-30T10:11:52.691Z,5.26
2023-01-30T10:15:20.397Z,5.34
2023-01-30T10:18:52.967Z,5.42
2023-01-30T10:22:03.745Z,5.56
2023-01-30T10:25:26.359Z,5.68
2023-01-30T10:28:34.613Z,5.70
2023-01-30T10:31:47.842Z,5.74
2023-01-30T10:34:55.286Z,5.79
2023-01-30T10:38:09.589Z,5.85
2023-01-30T10:41:27.102Z,5.86
2023-01-30T10:44:30.319Z,5.86
2023-01-30T10:47:47.873Z,5.86
2023-01-30T10:50:56.482Z,5.84
2023-01-30T10:54:04.845Z,5.83
2023-01-30T10:57:20.107Z,5.87
2023-01-30T11:00:30.759Z,5.86
2023-01-30T11:03:39.496Z,5.86
2023-01-30T11:06:45.320Z,5.84
2023-01-30T11:09:50.591Z,5.86
2023-01-30T11:12:57.490Z,5.89
2023-01-30T11:16:06.604Z,5.86
2023-01-30T11:19:20.668Z,5.85
2023-01-30T11:22:27.340Z,5.81
2023-01-30T11:25:32.068Z,5.84
2023-01-30T11:28:43.255Z,5.96
2023-01-30T11:31:52.273Z,6.05
2023-01-30T11:35:12.924Z,6.03
2023-01-30T11:38:25.444Z,6.06
2023-01-30T11:41:30.886Z,6.08
2023-01-30T11:44:58.614Z,6.05
2023-01-30T11:49:09.110Z,5.98
2023-01-30T11:52:14.336Z,6.01
2023-01-30T11:55:20.477Z,5.93
2023-01-30T11:58:25.189Z,5.68
2023-01-30T12:01:32.083Z,5.43
2023-01-30T12:04:38.517Z,5.32
2023-01-30T12:07:41.775Z,5.12
2023-01-30T12:10:48.966Z,4.80
2023-01-30T12:13:56.833Z,4.70
2023-01-30T12:17:12.321Z,4.60
2023-01-30T12:20:25.620Z,4.40
2023-01-30T12:23:39.466Z,4.38
2023-01-30T12:26:48.536Z,4.68
2023-01-30T12:30:01.221Z,4.94
2023-01-30T12:33:07.923Z,5.10
2023-01-30T12:36:22.721Z,5.17
2023-01-30T12:39:48.019Z,5.27
2023-01-30T12:43:21.278Z,5.46
2023-01-30T12:46:52.533Z,5.60
2023-01-30T12:50:21.179Z,5.79
2023-01-30T12:53:37.789Z,6.20
2023-01-30T12:57:01.571Z,6.43
2023-01-30T13:00:37.138Z,6.52
2023-01-30T13:03:51.968Z,6.44
2023-01-30T13:07:14.515Z,6.27
2023-01-30T13:10:27.807Z,6.19
2023-01-30T13:13:42.396Z,6.19
2023-01-30T13:17:02.141Z,6.16
2023-01-30T13:20:24.789Z,6.09
2023-01-30T13:23:41.526Z,6.12
2023-01-30T13:26:45.706Z,6.18
2023-01-30T13:29:53.725Z,6.22
2023-01-30T13:33:01.866Z,6.27
2023-01-30T13:36:17.589Z,6.42
2023-01-30T13:39:31.654Z,6.41
2023-01-30T13:43:23.974Z,6.36
2023-01-30T13:46:44.679Z,6.28
2023-01-30T13:50:00.311Z,6.08
2023-01-30T13:53:11.092Z,5.80
2023-01-30T13:56:40.388Z,5.53
2023-01-30T14:00:33.125Z,5.40
2023-01-30T14:03:37.558Z,5.19
2023-01-30T14:06:42.453Z,5.08
2023-01-30T14:10:13.304Z,4.89
2023-01-30T14:13:18.522Z,4.64
2023-01-30T14:16:22.098Z,4.49
2023-01-30T14:19:49.749Z,4.32
2023-01-30T14:22:56.221Z,4.21
2023-01-30T14:26:01.772Z,4.19
2023-01-30T14:29:07.189Z,4.27
2023-01-30T14:32:57.216Z,4.33
2023-01-30T14:36:37.376Z,4.45
2023-01-30T14:39:43.307Z,4.49
2023-01-30T14:43:49.721Z,4.57
2023-01-30T14:46:56.765Z,4.61
2023-01-30T14:50:02.391Z,4.52
2023-01-30T14:53:05.780Z,4.48
2023-01-30T14:56:08.918Z,4.41
2023-01-30T15:00:16.521Z,4.39
2023-01-30T15:03:47.359Z,4.33
2023-01-30T15:06:53.467Z,4.23
2023-01-30T15:10:00.209Z,4.21
2023-01-30T15:13:25.758Z,4.19
2023-01-30T15:16:59.945Z,4.24
2023-01-30T15:20:20.084Z,4.29
2023-01-30T15:24:10.103Z,4.37
2023-01-30T15:27:21.939Z,4.36
2023-01-30T15:30:47.132Z,4.38
2023-01-30T15:33:56.758Z,4.39
2023-01-30T15:37:04.110Z,4.49
2023-01-30T15:40:24.319Z,4.50
2023-01-30T15:44:01.777Z,4.47
2023-01-30T15:47:23.016Z,4.50
2023-01-30T15:50:28.405Z,4.48
2023-01-30T15:53:35.704Z,4.52
2023-01-30T15:56:41.425Z,4.53
2023-01-30T15:59:48.665Z,4.55
2023-01-30T16:02:51.721Z,4.55
2023-01-30T16:05:58.290Z,4.53
2023-01-30T16:09:03.921Z,4.53
2023-01-30T16:12:24.432Z,4.54
2023-01-30T16:15:36.396Z,4.56
2023-01-30T16:18:44.359Z,4.63
2023-01-30T16:21:49.211Z,4.63
2023-01-30T16:24:54.614Z,4.64
2023-01-30T16:27:58.620Z,4.62
2023-01-30T16:31:03.935Z,4.61
2023-01-30T16:34:07.316Z,4.55
2023-01-30T16:37:28.220Z,4.48
2023-01-30T16:40:44.206Z,4.38
2023-01-30T16:43:47.983Z,4.36
2023-01-30T16:47:02.299Z,4.35
2023-01-30T16:50:14.022Z,4.37
2023-01-30T16:53:24.182Z,4.35
2023-01-30T16:56:29.471Z,4.35
2023-01-30T16:59:39.337Z,4.42
2023-01-30T17:02:58.099Z,4.45
2023-01-30T17:06:06.490Z,4.49
2023-01-30T17:09:44.376Z,4.52
2023-01-30T17:12:50.865Z,4.53
2023-01-30T17:16:26.511Z,4.57
2023-01-30T17:19:29.703Z,4.62
2023-01-30T17:22:33.391Z,4.63
2023-01-30T17:25:41.429Z,4.65
2023-01-30T17:28:45.161Z,4.67
2023-01-30T17:31:52.514Z,4.74
2023-01-30T17:34:56.119Z,4.71
2023-01-30T17:38:05.415Z,4.73
2023-01-30T17:41:19.611Z,4.80
2023-01-30T17:44:22.688Z,4.78
2023-01-30T17:47:30.472Z,4.80
2023-01-30T17:50:33.600Z,4.87
2023-01-30T17:53:36.707Z,4.90
2023-01-30T17:56:43.722Z,4.95
2023-01-30T17:59:50.690Z,4.99
2023-01-30T18:02:55.516Z,4.96
2023-01-30T18:06:00.122Z,5.00
2023-01-30T18:09:03.649Z,5.06
2023-01-30T18:12:07.915Z,5.13
2023-01-30T18:15:15.955Z,5.14
2023-01-30T18:18:20.869Z,5.17
2023-01-30T18:21:24.266Z,5.26
2023-01-30T18:24:28.629Z,5.34
2023-01-30T18:27:34.095Z,5.37
2023-01-30T18:30:49.457Z,5.42
2023-01-30T18:33:55.312Z,5.47
2023-01-30T18:36:58.629Z,5.45
2023-01-30T18:40:01.773Z,5.46
2023-01-30T18:43:07.067Z,5.51
2023-01-30T18:46:13.065Z,5.47
2023-01-30T18:49:27.582Z,5.49
2023-01-30T18:52:30.932Z,5.50
2023-01-30T18:55:34.530Z,5.44
2023-01-30T18:58:37.980Z,5.37
2023-01-30T19:01:43.142Z,5.46
2023-01-30T19:04:50.369Z,5.48
2023-01-30T19:07:54.602Z,5.48
2023-01-30T19:11:24.934Z,5.44
2023-01-30T19:14:31.867Z,5.43
2023-01-30T19:17:35.276Z,5.42
2023-01-30T19:20:40.153Z,5.47
2023-01-30T19:23:43.833Z,5.46
2023-01-30T19:26:48.968Z,5.44
2023-01-30T19:29:52.290Z,5.39
2023-01-30T19:32:58.671Z,5.35
2023-01-30T19:36:11.933Z,5.33
2023-01-30T19:39:15.133Z,5.28
2023-01-30T19:42:18.284Z,5.33
2023-01-30T19:45:21.289Z,5.30
2023-01-30T19:48:28.065Z,5.35
2023-01-30T19:51:39.483Z,5.34
2023-01-30T19:54:42.539Z,5.29
2023-01-30T19:57:45.709Z,5.28
2023-01-30T20:00:52.674Z,5.29
2023-01-30T20:03:56.267Z,5.28
2023-01-30T20:07:06.950Z,5.20
2023-01-30T20:10:11.718Z,5.18
2023-01-30T20:13:14.856Z,5.13
2023-01-30T20:16:20.773Z,5.07
2023-01-30T20:19:24.102Z,5.08
2023-01-30T20:22:28.563Z,5.06
2023-01-30T20:25:31.524Z,4.98
2023-01-30T20:28:37.922Z,4.98
2023-01-30T20:31:41.133Z,5.03
2023-01-30T20:34:44.230Z,5.01
2023-01-30T20:37:48.564Z,5.03
2023-01-30T20:40:51.575Z,5.10
2023-01-30T20:43:57.964Z,5.14
2023-01-30T20:47:01.078Z,5.13
2023-01-30T20:50:04.453Z,5.06
2023-01-30T20:53:11.929Z,4.98
2023-01-30T20:56:17.297Z,5.02
2023-01-30T20:59:23.973Z,5.01
2023-01-30T21:02:28.585Z,5.05
2023-01-30T21:05:31.938Z,5.05
2023-01-30T21:08:41.484Z,5.06
2023-01-30T21:11:45.122Z,5.04
2023-01-30T21:14:51.903Z,4.99
2023-01-30T21:17:55.671Z,4.98
2023-01-30T21:20:58.850Z,4.99
2023-01-30T21:24:07.971Z,4.96
2023-01-30T21:27:11.140Z,4.97
2023-01-30T21:30:14.749Z,5.06
2023-01-30T21:33:17.927Z,5.08
2023-01-30T21:36:20.896Z,4.98
2023-01-30T21:39:42.814Z,4.99
2023-01-30T21:43:03.770Z,4.90
2023-01-30T21:46:07.359Z,4.93
2023-01-30T21:49:14.740Z,4.93
2023-01-30T21:52:18.157Z,4.88
2023-01-30T21:55:24.969Z,4.80
2023-01-30T21:58:32.429Z,4.84
2023-01-30T22:01:37.683Z,4.81
2023-01-30T22:04:40.893Z,4.78
2023-01-30T22:07:46.364Z,4.68
2023-01-30T22:10:50.779Z,4.63
2023-01-30T22:13:54.900Z,4.55
2023-01-30T22:16:58.117Z,4.42
2023-01-30T22:20:02.992Z,4.38
2023-01-30T22:23:06.287Z,4.29
2023-01-30T22:26:12.894Z,4.27
2023-01-30T22:29:18.033Z,4.27
2023-01-30T22:32:21.043Z,4.24
2023-01-30T22:35:26.271Z,4.18
2023-01-30T22:38:30.543Z,4.14
2023-01-30T22:41:37.146Z,4.07
2023-01-30T22:44:40.365Z,4.07
2023-01-30T22:47:43.359Z,4.03
2023-01-30T22:50:46.322Z,3.95
2023-01-30T22:53:51.687Z,3.99
2023-01-30T22:56:56.100Z,3.97
2023-01-30T23:00:00.135Z,3.93
2023-01-30T23:03:03.417Z,3.90
2023-01-30T23:06:09.920Z,3.89
2023-01-30T23:09:17.129Z,3.88
2023-01-30T23:12:39.567Z,3.87
2023-01-30T23:15:46.546Z,3.86
2023-01-30T23:18:55.392Z,3.85
2023-01-30T23:21:58.950Z,3.78
2023-01-30T23:25:02.167Z,3.80
2023-01-30T23:28:06.850Z,3.82
2023-01-30T23:31:12.560Z,3.75
2023-01-30T23:34:19.396Z,3.75
2023-01-30T23:37:42.671Z,3.69
2023-01-30T23:40:46.806Z,3.64
2023-01-30T23:43:52.071Z,3.74
2023-01-30T23:46:55.160Z,3.73
2023-01-30T23:49:58.384Z,3.72
2023-01-30T23:53:01.468Z,3.69
2023-01-30T23:56:06.835Z,3.69
2023-01-30T23:59:11.879Z,3.59
